Weather Top, Arizona (BMGR) Weather observations

Data are for 10 minute period ending at time listed.
 Day   Time   Solar   Ave.   Ave.  Ave.  Vector  Max.   Total    
  of    of     Rad.   Air    Rel.  Wind   Wind   Wind  Precip.   
Year   Day            Temp.  Hum.  Speed  Dir.   Gust            
2026   (MST)  Kw/m2    F      %     mph   deg.    mph    in.     
-----------------------------------------------------------------
 242   19:35   0.00   72.7    75   29.3   115    41.2    0.00 
 242   19:40   0.00   74.2    70   28.0   113    47.4    0.00 
 242   19:45   0.00   76.0    65   29.6   114    36.7    0.00 
 242   19:50   0.00   75.7    64   22.8   114    30.6    0.00 
 242   19:55   0.00   76.1    60   21.4   116    33.4    0.00 
 242   20:00   0.00   76.0    59   17.5   111    23.9    0.00 
 242   20:05   0.00   75.9    59   14.8   116    18.9    0.00 
 242   20:10   0.00   75.9    60   10.3   112    15.5    0.00 
 242   20:15   0.00   75.0    63   10.7   111    13.8    0.00 
 242   20:20   0.00   74.7    64    9.4    96    14.9    0.00 
 242   20:25   0.00   75.3    62    8.1   104    12.7    0.00 
 242   20:30   0.00   76.0    60    8.9    98    12.7    0.00 
 242   20:35   0.00   77.1    56    7.3   121     9.9    0.00 
 242   20:40   0.00   76.6    58    6.5   135     9.9    0.00 
 242   20:45   0.00   78.9    47    5.8   131     8.8    0.00 
 242   20:50   0.00   79.1    49    6.4   105     9.3    0.00 
 242   20:55   0.00   79.7    47    7.6   100     9.9    0.00 
 242   21:00   0.00   81.2    43    9.6   106    12.7    0.00 
 242   21:05   0.00   82.4    40    8.4   109    12.1    0.00 
 242   21:10   0.00   82.0    42    6.2   103     9.9    0.00 
 242   21:15   0.00   82.2    42    6.8   109     9.3    0.00 
 242   21:20   0.00   82.3    42    6.1   110     9.9    0.00 
 242   21:25   0.00   82.2    42    6.7   110     9.3    0.00 
 242   21:30   0.00   82.4    41    7.7   107    10.5    0.00 
 242   21:35   0.00   82.4    41    6.5   113     9.3    0.00 
 242   21:40   0.00   82.3    41    6.4   109     9.3    0.00 
 242   21:45   0.00   81.8    42    6.0   117     8.2    0.00 
 242   21:50   0.00   81.9    42    7.2   125    10.5    0.00 
 242   21:55   0.00   81.6    42    8.3   118    10.5    0.00 
 242   22:00   0.00   82.5    40    8.2   112    11.0    0.00 
 242   22:05   0.00   82.6    40    8.4   119    11.6    0.00 
 242   22:10   0.00   82.0    41    9.1   119    12.1    0.00 
 242   22:15   0.00   81.8    42    8.0   115    10.5    0.00 
 242   22:20   0.00   80.8    46    8.0   120     9.9    0.00 
 242   22:25   0.00   80.2    47    8.0   121    11.0    0.00 
 242   22:30   0.00   81.0    43    6.2   119     8.8    0.00 
 242   22:35   0.00   82.3    40    4.7   149     7.1    0.00 
 242   22:40   0.00   83.1    39    5.1   147     7.7    0.00 
 242   22:45   0.00   82.8    40    5.1   139     7.7    0.00 
 242   22:50   0.00   83.2    39    4.2   159     6.0    0.00 
 242   22:55   0.00   83.8    38    4.5   170     6.5    0.00 
 242   23:00   0.00   83.8    38    4.9   175     7.1    0.00 
 242   23:05   0.00   83.7    38    4.3   175     5.4    0.00 
 242   23:10   0.00   83.8    38    4.5   187     6.0    0.00 
 242   23:15   0.00   84.0    38    4.4   177     6.0    0.00 
 242   23:20   0.00   83.4    39    4.3   154     5.4    0.00 
 242   23:25   0.00   83.3    40    4.6   155     6.5    0.00 
 242   23:30   0.00   83.5    40    5.2   152     8.2    0.00 
 242   23:35   0.00   83.3    40    5.2   147     7.7    0.00 
 242   23:40   0.00   82.8    42    4.5   142     7.1    0.00 
 242   23:45   0.00   82.8    42    5.2   147     8.2    0.00 
 242   23:50   0.00   82.8    43    4.8   144     7.7    0.00 
 242   23:55   0.00   82.8    44    3.9   142     7.1    0.00 
 243    0:00   0.00   82.9    44    3.4   151     5.4    0.00 
 243    0:05   0.00   83.2    43    3.4   164     5.4    0.00 
 243    0:10   0.00   83.6    42    3.7   189     6.0    0.00 
 243    0:15   0.00   83.9    42    3.9   177     5.4    0.00 
 243    0:20   0.00   83.2    44    3.6   166     6.0    0.00 
 243    0:25   0.00   83.4    42    3.7   193     5.4    0.00 
 243    0:30   0.00   83.9    42    4.0   193     6.0    0.00 
 243    0:35   0.00   83.9    41    4.2   199     6.0    0.00 
 243    0:40   0.00   83.7    42    4.2   197     7.1    0.00 
 243    0:45   0.00   83.6    42    5.0   212     7.7    0.00 
 243    0:50   0.00   83.4    43    4.1   228     7.7    0.00 
 243    0:55   0.00   83.3    43    4.4   236     7.7    0.00 
 243    1:00   0.00   83.0    44    2.6   326     7.1    0.00 
 243    1:05   0.00   82.0    47    3.8   323     7.1    0.00 
 243    1:10   0.00   81.8    47    4.7   335     7.7    0.00 
 243    1:15   0.00   81.6    47    3.1   324     6.5    0.00 
 243    1:20   0.00   82.5    45    2.5   291     6.0    0.00 
 243    1:25   0.00   82.3    47    0.7   334     3.2    0.00 
 243    1:30   0.00   81.3    47    2.6    13     4.3    0.00 
 243    1:35   0.00   81.0    47    1.7   358     4.3    0.00 
 243    1:40   0.00   82.1    45    0.2   299     2.1    0.00 
 243    1:45   0.00   82.1    46    1.7    54     3.8    0.00 
 243    1:50   0.00   80.7    49    3.7    33     6.0    0.00 
 243    1:55   0.00   79.2    52    2.3    21     5.4    0.00 
 243    2:00   0.00   79.5    49    3.2   346     5.4    0.00 
 243    2:05   0.00   79.4    49    2.9     4     5.4    0.00 
 243    2:10   0.00   79.1    50    3.5   344     5.4    0.00 
 243    2:15   0.00   79.0    50    4.0     3     6.0    0.00 
 243    2:20   0.00   79.0    49    3.9     8     6.5    0.00 
 243    2:25   0.00   78.7    51    6.2    28    10.5    0.00 
 243    2:30   0.00   77.5    55   10.1    47    12.7    0.00 
 243    2:35   0.00   77.5    56    8.9    58    12.1    0.00 
 243    2:40   0.00   77.4    58    6.9    70     8.2    0.00 
 243    2:45   0.00   77.8    56    6.2    78     8.8    0.00 
 243    2:50   0.00   78.0    56    3.6    92     6.0    0.00 
 243    2:55   0.00   78.2    55    2.9    93     4.3    0.00 
 243    3:00   0.00   78.6    54    3.3   106     6.0    0.00 
 243    3:05   0.00   77.6    59    4.8   123     6.5    0.00 
 243    3:10   0.00   77.5    59    5.2   104     6.5    0.00 
 243    3:15   0.00   77.7    59    4.2   110     5.4    0.00 
 243    3:20   0.00   78.1    57    0.8   209     3.8    0.00 
 243    3:25   0.00   78.2    60    2.1   229     4.3    0.00 
 243    3:30   0.00   77.5    62    2.5   206     4.3    0.00 
 243    3:35   0.00   77.5    61    3.8   173     6.0    0.00 
 243    3:40   0.00   77.2    62    5.5    99     7.7    0.00 
 243    3:45   0.00   77.5    60    6.8   109     8.8    0.00 
 243    3:50   0.00   78.1    58    7.3   106     9.9    0.00 
 243    3:55   0.00   77.9    60    7.2   102     9.3    0.00 
 243    4:00   0.00   77.5    62    5.7    93     7.7    0.00 
 243    4:05   0.00   77.1    63    4.0    98     6.0    0.00 
 243    4:10   0.00   76.9    64    3.8   102     6.0    0.00 
 243    4:15   0.00   77.2    61    4.9   104     8.8    0.00 
 243    4:20   0.00   77.8    58    5.7   110     7.7    0.00 
 243    4:25   0.00   77.8    58    7.6   109    11.0    0.00 
 243    4:30   0.00   78.1    56    7.5   115    11.6    0.00 
 243    4:35   0.00   78.1    57    7.5   115    11.0    0.00 
 243    4:40   0.00   78.1    57    7.7   100    12.1    0.00 
 243    4:45   0.00   76.8    62    7.8    97    12.1    0.01 
 243    4:50   0.00   76.4    63    8.7   106    12.7    0.00 
 243    4:55   0.00   76.9    61    8.4   105    11.6    0.00 
 243    5:00   0.00   77.3    60    9.5   107    12.1    0.00 
 243    5:05   0.00   76.8    62   10.5   109    13.3    0.00 
 243    5:10   0.00   76.1    65   11.4   110    13.8    0.00 
 243    5:15   0.00   76.0    65   12.1   114    15.5    0.00 
 243    5:20   0.00   75.8    65   11.3   112    16.0    0.00 
 243    5:25   0.00   76.0    65   10.8   115    13.8    0.00 
 243    5:30   0.00   76.0    65   11.2   110    18.3    0.00 
 243    5:35   0.00   75.6    66   11.5   111    17.2    0.00 
 243    5:40   0.00   75.2    67   11.4   108    16.6    0.00 
 243    5:45   0.00   75.0    67   13.6   110    18.9    0.00 
 243    5:50   0.00   74.7    69   13.9   108    21.6    0.00 
 243    5:55   0.00   74.7    69   12.6   110    19.4    0.00 
 243    6:00   0.00   74.2    72   12.2   107    17.2    0.00 
 243    6:05   0.00   74.1    72   12.6   110    18.3    0.00 
 243    6:10   0.00   74.1    73   12.6   109    19.4    0.00 
 243    6:15   0.00   74.1    73   12.1   108    17.2    0.00 
 243    6:20   0.00   74.3    73   12.5   112    18.9    0.00 
 243    6:25   0.00   74.3    73   13.2   110    18.3    0.00 
 243    6:30   0.00   74.5    73   13.0   100    24.4    0.00 
 243    6:35   0.01   73.8    75   10.8   105    17.2    0.00 
 243    6:40   0.01   73.6    76   10.6   116    16.0    0.00 
 243    6:45   0.01   73.8    75   12.8   119    18.3    0.00 
 243    6:50   0.01   73.2    77   11.8   118    19.4    0.00 
 243    6:55   0.01   73.2    77   12.4   115    20.0    0.00 
 243    7:00   0.02   73.6    76   13.9   109    22.2    0.00 
 243    7:05   0.02   73.6    76   11.4   105    21.1    0.00 
 243    7:10   0.02   73.5    76   13.7   100    18.9    0.00 
 243    7:15   0.02   73.9    75   13.8   106    21.6    0.00 
 243    7:20   0.03   73.9    75   12.5   104    18.3    0.00 
 243    7:25   0.04   74.0    74   12.8   113    18.9    0.00 
 243    7:30   0.05   74.3    72   13.2   112    19.4    0.00 
 243    7:35   0.05   74.3    71   14.8   112    21.6    0.00 
 243    7:40   0.06   74.9    67   14.3   118    23.9    0.00 
 243    7:45   0.05   74.7    68   13.3   111    19.4    0.00 
 243    7:50   0.05   74.9    66   14.3   114    20.0    0.00 
 243    7:55   0.06   74.9    67   13.8   114    20.5    0.00 
 243    8:00   0.08   74.8    67   13.4   113    21.1    0.00 
 243    8:05   0.09   74.8    67   12.6   108    18.9    0.00 
 243    8:10   0.10   74.9    66   12.7   111    18.9    0.00 
 243    8:15   0.12   75.1    66   11.6   110    16.0    0.00 
 243    8:20   0.13   75.2    66    9.1   106    16.6    0.00 
 243    8:25   0.16   74.6    68   10.7   118    21.1    0.00 
 243    8:30   0.17   74.5    68   10.4   105    17.7    0.00 
 243    8:35   0.14   74.2    70   11.5   109    17.2    0.00 
 243    8:40   0.13   74.3    70   10.1    97    16.6    0.00 
 243    8:45   0.12   74.2    70   10.6   111    17.2    0.00 
 243    8:50   0.12   74.2    69   10.2   113    17.2    0.00 
 243    8:55   0.16   74.1    70    9.3   100    16.6    0.00 
 243    9:00   0.18   73.8    71   10.8   111    16.6    0.00 
 243    9:05   0.18   73.1    75   11.3   115    20.0    0.00 
 243    9:10   0.17   72.7    77   12.4   119    21.1    0.00 
 243    9:15   0.17   72.5    78   14.1   105    19.4    0.00 
 243    9:20   0.18   72.6    78   13.4   112    18.3    0.00 
 243    9:25   0.19   72.9    77   13.1   100    19.4    0.00 
 243    9:30   0.20   73.0    77   14.2   106    22.8    0.00 
 243    9:35   0.18   73.2    76   13.5    90    18.9    0.00 
 243    9:40   0.17   73.3    76   13.0   100    19.4    0.00 
 243    9:45   0.16   73.5    75   12.3   105    21.1    0.00 
 243    9:50   0.17   73.5    76   11.2   101    15.5    0.00 
 243    9:55   0.20   73.6    76   11.9   100    16.6    0.00 
 243   10:00   0.20   73.7    76   11.1   102    14.9    0.00 
 243   10:05   0.21   73.9    75   11.2    97    18.3    0.00 
 243   10:10   0.25   74.1    75   10.3    99    14.9    0.00 
 243   10:15   0.28   74.1    76   11.7   100    18.9    0.00 
 243   10:20   0.30   74.0    76   12.5   120    22.2    0.00 
 243   10:25   0.33   74.3    76   11.1    96    16.6    0.00 
 243   10:30   0.56   74.4    77   12.4   111    18.3    0.00 
 243   10:35   0.77   75.4    75   11.4   112    17.2    0.00 
 243   10:40   0.36   75.2    75   12.5   101    17.2    0.00 
 243   10:45   0.33   75.1    72   13.9    97    21.1    0.00 
 243   10:50   0.34   74.9    71   15.3   107    20.0    0.00 
 243   10:55   0.88   75.3    71   14.9   104    21.6    0.00 
 243   11:00   0.40   75.5    70   14.4   107    19.4    0.00 
 243   11:05   0.73   75.8    69   14.2   108    22.2    0.00 
 243   11:10   0.89   76.8    68   12.3   102    19.4    0.00 
 243   11:15   0.84   76.5    69   13.3    94    19.4    0.00 
 243   11:20   0.83   76.3    69   13.6    94    20.0    0.00 
 243   11:25   0.84   76.8    69   12.5    98    24.4    0.00 
 243   11:30   0.85   76.7    68   14.3   113    21.1    0.00 
 243   11:35   0.87   76.4    68   15.6   115    22.2    0.00 
 243   11:40   0.88   76.6    68   14.9   110    21.6    0.00 
 243   11:45   0.87   77.4    67   13.5   112    20.0    0.00 
 243   11:50   0.86   77.2    68   15.2   108    21.6    0.00 
 243   11:55   0.85   77.3    68   14.8   112    22.8    0.00 
 243   12:00   0.85   77.2    67   14.1   109    21.6    0.00 
 243   12:05   0.85   77.3    67   14.7   104    21.6    0.00 
 243   12:10   0.85   77.3    66   14.9   108    25.0    0.00 
 243   12:15   0.85   77.6    66   13.3   100    20.5    0.00 
 243   12:20   0.86   78.2    65   12.5   102    22.2    0.00 
 243   12:25   0.86   78.8    64    9.2   112    14.4    0.00 
 243   12:30   0.85   78.8    64   11.2   110    16.0    0.00 
 243   12:35   0.85   78.4    64   12.4   105    18.3    0.00 
 243   12:40   0.85   78.9    63   12.7   110    21.1    0.00 
 243   12:45   0.85   78.9    63   13.2   112    19.4    0.00 
 243   12:50   0.85   79.1    62   15.0   110    24.4    0.00 
 243   12:55   0.85   79.0    62   15.2   106    22.2    0.00 
 243   13:00   0.85   79.7    61   13.9    99    26.1    0.00 
 243   13:05   0.84   80.0    60   13.8   104    22.2    0.00 
 243   13:10   0.84   79.5    60   15.1   101    24.4    0.00 
 243   13:15   0.84   79.9    59   13.2   102    21.6    0.00 
 243   13:20   0.83   79.7    58   14.2   115    22.8    0.00 
 243   13:25   0.83   79.6    57   14.2   121    23.3    0.00 
 243   13:30   0.83   79.8    57   15.5   126    23.3    0.00 
 243   13:35   0.82   79.7    58   15.0   121    22.2    0.00 
 243   13:40   0.81   79.5    59   15.3   117    25.0    0.00 
 243   13:45   0.81   80.2    57   12.5   119    17.7    0.00 
 243   13:50   0.80   80.4    56   13.4   119    20.0    0.00 
 243   13:55   0.80   80.6    57   13.4   123    20.0    0.00 
 243   14:00   0.79   81.0    56   12.2   127    21.1    0.00 
 243   14:05   0.78   80.9    55   13.7   122    21.6    0.00 
 243   14:10   0.77   81.5    54   10.6   119    16.6    0.00 
 243   14:15   0.77   81.6    53   11.6   122    18.9    0.00 
 243   14:20   0.76   81.8    54   11.7   117    19.4    0.00 
 243   14:25   0.75   81.8    53   13.1   124    20.5    0.00 
 243   14:30   0.75   82.1    52   11.0   122    17.2    0.00 
 243   14:35   0.74   82.2    52   10.8   128    16.6    0.00 
 243   14:40   0.73   82.3    52   11.2   121    20.5    0.00 
 243   14:45   0.72   83.0    51    8.9   123    13.3    0.00 
 243   14:50   0.71   83.3    51    9.6   117    15.5    0.00 
 243   14:55   0.69   82.9    51   10.9   118    15.5    0.00 
 243   15:00   0.63   83.0    52   10.1   104    15.5    0.00 
 243   15:05   0.67   83.4    52    9.7   116    13.3    0.00 
 243   15:10   0.65   83.3    52   10.7   116    15.5    0.00 
 243   15:15   0.63   83.4    51   10.9   121    15.5    0.00 
 243   15:20   0.62   83.5    50   11.0   120    16.6    0.00 
 243   15:25   0.61   83.6    52    9.4   123    14.9    0.00 
 243   15:30   0.60   84.1    50    9.7   110    14.9    0.00 
 243   15:35   0.59   83.8    50   10.6   106    16.0    0.00 
 243   15:40   0.58   84.2    49    8.3   108    12.7    0.00 
 243   15:45   0.57   84.5    48    8.6   117    12.7    0.00 
 243   15:50   0.55   84.8    48    8.3   115    13.8    0.00 
 243   15:55   0.54   85.0    46    8.1   123    12.1    0.00 
 243   16:00   0.54   85.2    45    8.8   124    13.3    0.00 
 243   16:05   0.52   85.1    45    7.1   105    11.0    0.00 
 243   16:10   0.30   85.0    46    6.2   114    10.5    0.00 
 243   16:15   0.34   84.8    45    7.3   109    11.6    0.00 
 243   16:20   0.20   84.5    45    8.2   116    12.1    0.00 
 243   16:25   0.15   84.2    46    7.8   120    11.0    0.00 
 243   16:30   0.14   84.0    46    9.1   117    14.4    0.00 
 243   16:35   0.14   83.6    47   10.0   112    13.8    0.00 
 243   16:40   0.14   83.4    49    9.8   117    16.0    0.00 
 243   16:45   0.15   83.4    49    8.7   123    12.7    0.00 
 243   16:50   0.15   83.4    48    9.3   119    13.8    0.00 
 243   16:55   0.15   83.3    49    7.2   109    12.1    0.00 
 243   17:00   0.14   83.4    49    7.0   100    10.5    0.00 
 243   17:05   0.12   83.3    49    8.7   114    14.4    0.00 
 243   17:10   0.11   83.0    49   10.5   126    14.9    0.00 
 243   17:15   0.08   82.9    50    9.8   113    14.4    0.00 
 243   17:20   0.07   82.7    51    9.8   116    14.9    0.00 
 243   17:25   0.08   82.5    52    7.6   113    11.0    0.00 
 243   17:30   0.07   82.6    52    6.8    92    12.1    0.00 
 243   17:35   0.08   82.4    52    7.8    96    12.7    0.00 
 243   17:40   0.13   82.5    52    6.3   100    12.1    0.00 
 243   17:45   0.25   83.0    52    4.6   115     9.3    0.00 
 243   17:50   0.22   83.2    51    5.5   123     8.8    0.00 
 243   17:55   0.24   83.5    50    5.1   134     8.2    0.00 
 243   18:00   0.22   83.4    50    7.1   121    11.6    0.00 
 243   18:05   0.19   83.4    50    6.5   126     9.9    0.00 
 243   18:10   0.15   82.7    50    7.7   116     9.9    0.00 
 243   18:15   0.06   82.4    51    7.6   115    11.0    0.00 
 243   18:20   0.04   82.1    52    8.5   114    12.1    0.00 
 243   18:25   0.03   82.0    52    8.3   117    12.7    0.00 
 243   18:30   0.05   81.9    52    8.0   115    12.7    0.00 
 243   18:35   0.05   81.6    52    8.0   113    11.0    0.00 
 243   18:40   0.04   81.4    52    5.8    93    10.5    0.00 
 243   18:45   0.03   81.0    53    6.1   105     8.8    0.00 
 243   18:50   0.01   80.8    54    5.7   105     7.7    0.00 
 243   18:55   0.01   80.7    54    6.5    99     8.8    0.00 
 243   19:00   0.01   80.7    54    7.9   106    10.5    0.00 
 243   19:05   0.00   80.7    54    8.3   111    11.6    0.00 
 243   19:10   0.00   80.6    54    9.0   112    13.3    0.00 
 243   19:15   0.00   80.5    54    7.9   104    11.6    0.00 
 243   19:20   0.00   80.3    55    7.0   104    10.5    0.00 
 243   19:25   0.00   80.3    55    5.7   104     9.3    0.00 
 243   19:30   0.00   80.3    55    6.7    98     9.3    0.00 

Return to Weather Top graphs page.


Western Regional Climate Center,wrcc@dri.edu